Time;durP1;ratioP1;P1;durP2;ratioP2;P2;SDS_P1;SDS_P2;PMS_P1;PMS_P2;Temp;Humidity;BMP_temperature;BMP_pressure;BME280_temperature;BME280_humidity;BME280_pressure;Samples;Min_cycle;Max_cycle;Signal;HPM_P1;HPM_P2
2021/01/13 00:02:09;;;;;;;11.10;4.07;;;;;;;3.51;71.11;100502.97;5115806;28;20171;-66
2021/01/13 00:04:35;;;;;;;13.80;5.10;;;;;;;3.73;71.04;100505.41;5116262;28;20177;-68
2021/01/13 00:07:00;;;;;;;4.90;3.50;;;;;;;3.52;72.02;100499.56;5115140;28;20816;-68
2021/01/13 00:09:26;;;;;;;17.23;5.17;;;;;;;3.35;73.89;100493.81;5115292;28;20164;-69
2021/01/13 00:11:55;;;;;;;9.27;3.67;;;;;;;3.80;71.77;100502.19;5115849;28;20552;-70
2021/01/13 00:14:21;;;;;;;6.27;3.67;;;;;;;4.04;70.67;100505.56;5118196;28;20159;-69
2021/01/13 00:16:46;;;;;;;14.03;4.40;;;;;;;4.20;70.54;100552.53;5120185;28;20678;-69
2021/01/13 00:19:11;;;;;;;8.77;4.20;;;;;;;4.20;72.11;100562.84;5119933;28;20189;-68
2021/01/13 00:21:37;;;;;;;11.93;4.07;;;;;;;3.96;72.12;100553.44;5119905;28;20203;-68
2021/01/13 00:24:02;;;;;;;9.57;3.50;;;;;;;4.23;70.19;100547.44;5116211;28;20219;-69
2021/01/13 00:26:27;;;;;;;7.70;3.90;;;;;;;4.07;71.37;100535.75;5099410;28;20247;-69
2021/01/13 00:28:53;;;;;;;7.90;3.40;;;;;;;3.77;71.37;100521.00;5100202;28;20427;-70
2021/01/13 00:31:19;;;;;;;15.70;4.33;;;;;;;3.60;71.37;100524.72;5107847;28;20179;-69
2021/01/13 00:33:48;;;;;;;6.87;4.00;;;;;;;3.80;70.98;100518.56;5109727;28;20191;-72
2021/01/13 00:36:21;;;;;;;6.87;4.27;;;;;;;3.97;69.56;100510.50;5109454;28;20452;-69
2021/01/13 00:38:46;;;;;;;11.17;3.50;;;;;;;3.97;68.92;100501.03;5119995;28;20512;-69
2021/01/13 00:41:13;;;;;;;8.57;5.00;;;;;;;3.85;70.21;100505.81;5109761;27;20871;-69
2021/01/13 00:43:39;;;;;;;8.30;4.00;;;;;;;3.65;70.73;100507.72;5138937;27;20178;-70
2021/01/13 00:46:05;;;;;;;8.60;4.40;;;;;;;3.80;70.57;100500.50;5138927;27;20465;-73
2021/01/13 00:48:30;;;;;;;9.67;5.23;;;;;;;3.97;71.27;100502.75;5132926;27;20420;-70
2021/01/13 00:50:56;;;;;;;9.97;5.30;;;;;;;3.92;70.12;100497.44;5120013;28;20163;-67
2021/01/13 00:53:22;;;;;;;11.67;4.80;;;;;;;3.12;72.47;100507.59;5117448;28;20382;-67
2021/01/13 00:55:47;;;;;;;13.70;5.20;;;;;;;3.48;72.42;100500.28;5119441;28;20184;-66
2021/01/13 00:58:13;;;;;;;7.80;4.37;;;;;;;3.47;71.92;100500.25;5117996;27;20179;-66
2021/01/13 01:00:38;;;;;;;10.37;4.70;;;;;;;3.20;72.63;100506.16;5118124;27;20231;-66
2021/01/13 01:03:05;;;;;;;6.67;3.90;;;;;;;3.49;71.45;100496.91;5114167;27;20810;-66
2021/01/13 01:05:31;;;;;;;12.70;4.70;;;;;;;3.52;71.12;100491.84;5118148;27;20214;-64
2021/01/13 01:07:56;;;;;;;11.30;4.50;;;;;;;3.18;72.45;100497.50;5119453;28;20798;-68
2021/01/13 01:10:30;;;;;;;5.40;3.00;;;;;;;3.14;72.43;100488.81;5119356;28;20186;-67
2021/01/13 01:12:56;;;;;;;12.10;3.67;;;;;;;3.01;73.37;100482.31;5118644;28;20191;-67
2021/01/13 01:15:23;;;;;;;9.53;3.10;;;;;;;3.29;72.35;100495.31;5101106;28;20419;-66
2021/01/13 01:17:48;;;;;;;7.80;3.60;;;;;;;3.57;71.16;100502.28;5118447;28;20427;-66
2021/01/13 01:20:14;;;;;;;6.20;2.90;;;;;;;3.46;71.81;100488.16;5119209;28;20409;-67
2021/01/13 01:22:56;;;;;;;8.90;3.70;;;;;;;3.71;70.85;100490.75;5118928;28;20164;-67
2021/01/13 01:25:22;;;;;;;8.43;3.60;;;;;;;3.58;71.58;100493.75;5118427;28;20221;-65
2021/01/13 01:27:53;;;;;;;5.50;3.00;;;;;;;3.68;70.68;100495.81;5117762;28;20790;-66
2021/01/13 01:30:19;;;;;;;6.57;3.10;;;;;;;3.61;70.35;100483.53;5118632;28;20409;-67
2021/01/13 01:32:45;;;;;;;4.67;2.47;;;;;;;3.33;69.74;100498.06;5118871;27;20719;-65
2021/01/13 01:35:12;;;;;;;4.40;2.67;;;;;;;3.67;69.39;100501.78;5117721;28;20425;-65
2021/01/13 01:37:39;;;;;;;6.13;2.87;;;;;;;3.70;69.89;100495.88;5117822;28;20194;-66
2021/01/13 01:40:09;;;;;;;3.80;2.33;;;;;;;3.61;70.19;100488.69;5118655;28;20492;-66
2021/01/13 01:42:35;;;;;;;4.83;3.30;;;;;;;4.17;67.59;100490.50;5118598;28;20416;-65
2021/01/13 01:45:04;;;;;;;6.13;2.70;;;;;;;4.05;67.29;100491.84;5117615;28;20409;-66
2021/01/13 01:47:58;;;;;;;3.03;2.20;;;;;;;3.70;68.33;100501.88;5117580;28;20409;-65
2021/01/13 01:50:25;;;;;;;4.90;2.80;;;;;;;4.18;66.27;100498.28;5118536;28;20394;-67
2021/01/13 01:52:58;;;;;;;8.60;3.03;;;;;;;4.13;67.24;100493.81;5118054;28;20728;-66
2021/01/13 01:55:24;;;;;;;4.47;2.80;;;;;;;4.14;66.68;100485.22;5117309;28;20801;-65
2021/01/13 01:57:54;;;;;;;6.67;2.90;;;;;;;3.71;68.15;100484.72;5117836;28;20417;-66
2021/01/13 02:00:30;;;;;;;3.30;2.67;;;;;;;3.31;70.29;100494.53;5118101;28;20429;-69
2021/01/13 02:03:01;;;;;;;5.00;2.30;;;;;;;3.28;70.79;100488.41;5117299;27;20481;-68
2021/01/13 02:05:27;;;;;;;10.70;3.00;;;;;;;3.18;70.74;100487.19;5118205;27;20758;-68
2021/01/13 02:07:54;;;;;;;7.30;2.93;;;;;;;3.12;71.12;100479.25;5117115;28;20458;-66
2021/01/13 02:10:19;;;;;;;4.83;2.73;;;;;;;3.17;72.22;100482.88;5117653;28;20405;-68
2021/01/13 02:12:52;;;;;;;7.27;3.40;;;;;;;3.41;71.59;100474.25;5117902;27;20476;-67
2021/01/13 02:15:18;;;;;;;6.77;2.97;;;;;;;3.09;72.48;100472.31;5117927;28;20541;-67
2021/01/13 02:17:43;;;;;;;7.50;3.23;;;;;;;2.94;73.08;100475.22;5117566;28;20466;-69
2021/01/13 02:20:13;;;;;;;9.83;4.17;;;;;;;3.19;72.99;100478.66;5096550;28;20545;-69
2021/01/13 02:22:53;;;;;;;8.93;3.30;;;;;;;3.55;73.42;100488.50;5113880;28;20175;-67
2021/01/13 02:26:01;;;;;;;7.60;3.20;;;;;;;3.85;70.16;100488.63;5117763;28;20464;-67
2021/01/13 02:28:27;;;;;;;7.17;3.10;;;;;;;3.62;70.74;100474.97;5098077;28;20412;-68
2021/01/13 02:31:04;;;;;;;8.17;3.93;;;;;;;3.95;70.33;100478.59;5117098;28;21076;-67
2021/01/13 02:33:36;;;;;;;14.97;3.33;;;;;;;3.81;69.93;100479.03;5117788;27;20548;-67
2021/01/13 02:36:17;;;;;;;7.33;2.97;;;;;;;3.85;69.32;100483.47;5117177;28;20429;-68
2021/01/13 02:38:42;;;;;;;6.37;2.90;;;;;;;3.94;69.77;100489.75;5117792;28;20420;-68
2021/01/13 02:41:14;;;;;;;10.87;3.77;;;;;;;4.13;70.98;100519.63;5117544;27;20672;-68
2021/01/13 02:43:50;;;;;;;6.20;3.30;;;;;;;3.54;71.81;100497.94;5117049;28;20692;-68
2021/01/13 02:46:46;;;;;;;12.17;3.73;;;;;;;3.48;71.78;100486.53;5117397;28;20413;-67
2021/01/13 02:49:12;;;;;;;8.97;3.90;;;;;;;3.42;71.41;100502.63;5117402;28;20409;-67
2021/01/13 02:51:40;;;;;;;4.20;3.27;;;;;;;3.40;71.98;100509.47;5116790;28;20493;-67
2021/01/13 02:54:24;;;;;;;7.67;3.60;;;;;;;4.10;69.74;100494.59;5117570;28;20222;-68
2021/01/13 02:56:52;;;;;;;7.27;3.67;;;;;;;3.92;69.49;100484.53;5117015;28;20492;-67
2021/01/13 02:59:17;;;;;;;10.53;3.90;;;;;;;4.46;68.45;100481.06;5116079;28;20441;-67
2021/01/13 03:01:44;;;;;;;4.97;3.00;;;;;;;4.55;68.09;100472.75;5116424;28;20501;-67
2021/01/13 03:04:11;;;;;;;10.70;3.30;;;;;;;4.19;68.81;100482.00;5117700;28;20167;-68
2021/01/13 03:06:38;;;;;;;9.23;3.43;;;;;;;3.94;70.43;100487.16;5117413;28;20410;-67
2021/01/13 03:09:06;;;;;;;7.93;3.87;;;;;;;3.52;73.77;100483.25;5117636;28;20412;-67
2021/01/13 03:11:31;;;;;;;9.83;3.87;;;;;;;3.69;72.04;100484.69;5117139;28;20401;-67
2021/01/13 03:14:06;;;;;;;5.70;3.47;;;;;;;3.50;72.80;100490.03;5117041;28;20724;-68
2021/01/13 03:16:34;;;;;;;10.37;3.70;;;;;;;3.57;72.88;100483.38;5105219;28;20187;-68
2021/01/13 03:19:04;;;;;;;7.50;3.30;;;;;;;3.26;72.25;100488.38;5104428;28;20424;-68
2021/01/13 03:21:57;;;;;;;11.70;3.70;;;;;;;3.67;71.57;100476.00;5096140;28;20486;-68
2021/01/13 03:24:47;;;;;;;6.57;3.40;;;;;;;3.76;70.78;100482.28;5095633;28;20886;-67
2021/01/13 03:27:14;;;;;;;15.33;3.57;;;;;;;3.45;72.65;100507.03;5095660;28;20521;-68
2021/01/13 03:29:42;;;;;;;10.43;3.57;;;;;;;3.98;70.60;100489.91;5095673;28;20415;-67
2021/01/13 03:32:09;;;;;;;11.43;3.80;;;;;;;3.92;72.99;100494.84;5095379;28;20414;-68
2021/01/13 03:34:44;;;;;;;12.27;4.00;;;;;;;3.82;72.09;100492.81;5095563;28;20702;-67
2021/01/13 03:37:25;;;;;;;6.70;3.60;;;;;;;3.58;72.78;100498.91;5095868;28;20496;-69
2021/01/13 03:39:51;;;;;;;10.37;3.73;;;;;;;3.42;73.12;100506.94;5095949;28;20417;-67
2021/01/13 03:42:17;;;;;;;13.83;4.00;;;;;;;3.43;73.06;100488.06;5096068;28;20429;-68
2021/01/13 03:44:44;;;;;;;9.73;4.60;;;;;;;3.18;74.51;100507.81;5096151;28;20414;-68
2021/01/13 03:47:16;;;;;;;10.60;3.77;;;;;;;2.65;75.63;100477.59;5096155;28;20467;-67
2021/01/13 03:49:52;;;;;;;7.40;4.17;;;;;;;3.45;74.51;100476.09;5095944;28;20410;-67
2021/01/13 03:52:17;;;;;;;8.67;4.03;;;;;;;3.16;74.64;100471.69;5094756;28;20488;-67
2021/01/13 03:54:43;;;;;;;6.17;3.83;;;;;;;3.44;73.69;100480.38;5095296;28;20838;-67
2021/01/13 03:57:09;;;;;;;7.37;3.90;;;;;;;3.45;73.03;100488.97;5095779;28;20171;-67
2021/01/13 03:59:56;;;;;;;10.40;3.50;;;;;;;3.34;74.77;100489.50;5099950;28;20442;-68
2021/01/13 04:02:26;;;;;;;9.93;4.00;;;;;;;3.68;73.45;100488.09;5093996;28;20867;-68
2021/01/13 04:04:55;;;;;;;7.70;3.60;;;;;;;3.52;73.71;100511.59;5095299;28;20410;-68
2021/01/13 04:07:22;;;;;;;5.83;3.17;;;;;;;3.27;74.45;100510.72;5095968;28;20428;-68
2021/01/13 04:09:48;;;;;;;9.80;4.13;;;;;;;3.36;74.88;100513.63;5096187;28;20417;-68
2021/01/13 04:12:15;;;;;;;6.90;3.57;;;;;;;3.37;72.91;100499.91;5096678;28;20529;-69
2021/01/13 04:14:54;;;;;;;7.20;4.33;;;;;;;3.62;73.25;100495.59;5096537;28;20160;-67
2021/01/13 04:17:20;;;;;;;10.60;4.07;;;;;;;3.57;72.83;100491.97;5096462;28;20446;-68
2021/01/13 04:19:46;;;;;;;8.70;4.50;;;;;;;3.18;74.35;100487.19;5096643;28;20457;-68
2021/01/13 04:22:13;;;;;;;8.87;4.57;;;;;;;3.41;74.52;100490.59;5096266;28;20413;-68
2021/01/13 04:24:43;;;;;;;13.83;4.27;;;;;;;3.07;74.88;100491.09;5096354;28;20560;-68
2021/01/13 04:27:11;;;;;;;4.93;3.20;;;;;;;2.85;74.94;100503.19;5096578;28;20428;-67
2021/01/13 04:29:36;;;;;;;5.67;2.77;;;;;;;2.75;75.20;100488.22;5096102;28;20501;-67
2021/01/13 04:32:02;;;;;;;20.77;10.10;;;;;;;2.66;77.11;100499.91;5096046;28;20521;-68
2021/01/13 04:34:27;;;;;;;5.10;3.30;;;;;;;2.77;76.04;100489.16;5096837;28;20480;-68
2021/01/13 04:36:56;;;;;;;5.27;2.87;;;;;;;3.07;73.99;100479.09;5096509;28;20173;-67
2021/01/13 04:39:24;;;;;;;6.20;3.30;;;;;;;3.23;73.41;100484.81;5095421;28;20172;-68
2021/01/13 04:42:02;;;;;;;5.50;2.60;;;;;;;3.35;73.17;100475.78;5096440;28;20417;-67
2021/01/13 04:44:31;;;;;;;7.10;3.50;;;;;;;3.03;73.64;100475.53;5096323;28;20893;-68
2021/01/13 04:47:07;;;;;;;15.17;4.73;;;;;;;3.47;72.64;100469.31;5096407;28;20411;-67
2021/01/13 04:49:33;;;;;;;8.90;4.27;;;;;;;3.14;73.20;100465.63;5095577;28;20410;-68
2021/01/13 04:52:05;;;;;;;7.70;3.57;;;;;;;2.92;75.69;100460.53;5095920;28;20454;-69
2021/01/13 04:54:30;;;;;;;10.00;3.30;;;;;;;3.35;73.14;100455.16;5096089;28;20831;-67
2021/01/13 04:57:11;;;;;;;5.90;4.03;;;;;;;3.05;74.55;100451.56;5095977;28;20406;-69
2021/01/13 04:59:58;;;;;;;9.27;3.60;;;;;;;3.40;73.24;100441.56;5096678;28;20219;-68
2021/01/13 05:03:25;;;;;;;6.73;3.60;;;;;;;3.32;74.26;100438.75;5114736;28;20477;-68
2021/01/13 05:05:56;;;;;;;6.30;3.50;;;;;;;3.16;75.39;100427.91;5082950;28;20449;-69
2021/01/13 05:08:29;;;;;;;6.27;3.20;;;;;;;3.39;74.18;100430.38;5133101;27;20427;-69
2021/01/13 05:11:12;;;;;;;8.40;3.90;;;;;;;3.22;74.92;100424.69;5140558;27;20420;-67
2021/01/13 05:13:40;;;;;;;6.67;3.90;;;;;;;2.94;75.05;100426.28;5140405;27;20483;-68
2021/01/13 05:16:13;;;;;;;5.30;3.50;;;;;;;3.06;75.49;100425.84;5140687;27;20404;-68
2021/01/13 05:18:50;;;;;;;8.43;4.40;;;;;;;3.44;74.11;100421.13;5140457;27;20415;-69
2021/01/13 05:21:20;;;;;;;9.10;3.90;;;;;;;3.60;74.12;100421.63;5140087;27;20407;-68
2021/01/13 05:23:48;;;;;;;9.50;3.93;;;;;;;3.72;73.47;100414.28;5140251;27;20456;-69
2021/01/13 05:26:24;;;;;;;6.83;3.60;;;;;;;3.45;74.27;100425.47;5140441;27;20675;-67
2021/01/13 05:29:16;;;;;;;9.07;5.67;;;;;;;3.54;73.93;100427.44;5140476;27;20396;-68
2021/01/13 05:31:43;;;;;;;8.50;3.70;;;;;;;3.60;73.45;100422.50;5139801;27;20668;-69
2021/01/13 05:34:08;;;;;;;7.20;4.53;;;;;;;3.39;76.15;100426.94;5139797;27;20756;-68
2021/01/13 05:36:39;;;;;;;5.87;3.20;;;;;;;3.66;75.06;100425.28;5140173;27;20427;-68
2021/01/13 05:39:13;;;;;;;7.57;4.43;;;;;;;3.19;75.53;100435.75;5140050;27;20687;-68
2021/01/13 05:41:39;;;;;;;10.90;5.87;;;;;;;3.47;74.56;100433.25;5140452;27;20913;-69
2021/01/13 05:44:05;;;;;;;9.90;3.63;;;;;;;3.15;76.27;100435.56;5140151;27;20740;-68
2021/01/13 05:46:45;;;;;;;6.60;3.47;;;;;;;2.84;76.11;100424.19;5140061;27;20507;-68
2021/01/13 05:49:11;;;;;;;4.60;3.67;;;;;;;3.17;75.65;100423.66;5140137;27;20436;-67
2021/01/13 05:51:37;;;;;;;6.00;3.90;;;;;;;3.43;75.34;100421.06;5139790;27;20513;-68
2021/01/13 05:54:05;;;;;;;10.37;4.47;;;;;;;3.63;74.65;100414.00;5140189;27;20221;-68
2021/01/13 05:56:36;;;;;;;6.03;4.03;;;;;;;3.34;74.58;100417.38;5140057;27;20530;-68
2021/01/13 05:59:03;;;;;;;5.17;4.00;;;;;;;3.00;76.69;100416.22;5138408;27;20431;-67
2021/01/13 06:01:56;;;;;;;5.97;3.63;;;;;;;2.67;76.87;100432.19;5138917;27;20440;-68
2021/01/13 06:04:22;;;;;;;8.43;4.30;;;;;;;3.19;75.42;100429.72;5139387;27;20408;-67
2021/01/13 06:07:13;;;;;;;5.60;4.37;;;;;;;3.32;75.51;100428.44;5140000;27;20413;-67
2021/01/13 06:09:43;;;;;;;7.80;4.20;;;;;;;3.29;75.96;100423.16;5138623;27;20432;-67
2021/01/13 06:12:16;;;;;;;6.97;3.50;;;;;;;3.23;75.60;100423.84;5137303;27;20415;-68
2021/01/13 06:14:42;;;;;;;6.67;4.07;;;;;;;3.46;75.10;100422.03;5139578;27;20404;-66
2021/01/13 06:17:07;;;;;;;7.87;4.27;;;;;;;3.53;74.52;100424.00;5138704;27;20816;-67
2021/01/13 06:19:33;;;;;;;6.60;4.07;;;;;;;3.92;74.33;100420.06;5139589;27;20262;-67
2021/01/13 06:22:09;;;;;;;5.30;4.37;;;;;;;3.77;74.04;100419.59;5139391;27;20182;-68
2021/01/13 06:24:35;;;;;;;7.37;4.37;;;;;;;3.77;73.76;100423.03;5138898;27;20464;-69
2021/01/13 06:27:21;;;;;;;7.43;4.20;;;;;;;3.53;75.17;100423.09;5139310;27;20427;-68
2021/01/13 06:30:00;;;;;;;8.53;4.10;;;;;;;3.24;76.48;100427.31;5139045;27;20420;-69
2021/01/13 06:32:52;;;;;;;8.13;4.13;;;;;;;3.57;76.16;100413.78;5138892;27;20447;-68
2021/01/13 06:35:41;;;;;;;6.70;3.80;;;;;;;3.40;75.06;100414.13;5138167;27;20433;-68
2021/01/13 06:38:43;;;;;;;8.10;3.57;;;;;;;3.17;76.46;100413.34;5139342;27;20417;-67
2021/01/13 06:41:09;;;;;;;5.83;3.93;;;;;;;3.13;76.94;100414.06;5135297;27;20431;-69
2021/01/13 06:43:34;;;;;;;5.93;3.70;;;;;;;3.33;75.75;100420.75;5138280;27;20810;-67
2021/01/13 06:45:59;;;;;;;5.67;3.50;;;;;;;3.47;76.52;100415.19;5138879;27;20179;-68
2021/01/13 06:48:26;;;;;;;7.73;4.00;;;;;;;3.51;75.81;100401.59;5138837;27;20540;-67
2021/01/13 06:50:56;;;;;;;7.53;4.23;;;;;;;3.32;77.03;100405.25;5138940;27;20443;-68
2021/01/13 06:53:22;;;;;;;4.13;3.47;;;;;;;2.95;76.97;100389.41;5138420;27;20865;-68
2021/01/13 06:55:48;;;;;;;8.67;4.70;;;;;;;3.40;75.09;100401.22;5138516;27;20412;-68
2021/01/13 06:58:15;;;;;;;6.97;3.37;;;;;;;3.02;76.75;100401.69;5138190;27;20423;-68
2021/01/13 07:00:45;;;;;;;6.93;3.77;;;;;;;3.43;75.60;100400.47;5138269;27;20228;-68
2021/01/13 07:03:29;;;;;;;5.20;3.33;;;;;;;3.30;76.37;100397.47;5097206;28;20457;-67
2021/01/13 07:06:15;;;;;;;9.67;4.10;;;;;;;3.16;77.00;100406.44;5097310;28;20468;-67
2021/01/13 07:08:40;;;;;;;8.10;3.60;;;;;;;3.57;75.57;100408.63;5097101;28;20457;-68
2021/01/13 07:11:07;;;;;;;7.10;4.70;;;;;;;3.29;76.49;100406.03;5097200;28;20723;-68
2021/01/13 07:13:36;;;;;;;4.10;3.73;;;;;;;3.22;76.96;100408.34;5097269;28;20199;-69
2021/01/13 07:16:02;;;;;;;10.63;3.60;;;;;;;3.29;75.02;100411.19;5097545;28;20438;-67
2021/01/13 07:18:28;;;;;;;4.63;3.40;;;;;;;3.55;75.34;100408.59;5096622;28;20472;-68
2021/01/13 07:20:54;;;;;;;6.20;3.50;;;;;;;3.46;75.75;100410.84;5097019;28;20406;-68
2021/01/13 07:23:20;;;;;;;6.10;4.13;;;;;;;3.50;75.58;100410.13;5096753;28;20233;-68
2021/01/13 07:25:48;;;;;;;8.30;3.57;;;;;;;3.43;75.90;100418.50;5097311;28;20426;-67
2021/01/13 07:28:14;;;;;;;6.77;4.00;;;;;;;3.82;73.80;100426.66;5097186;28;20453;-68
2021/01/13 07:30:40;;;;;;;4.53;3.87;;;;;;;3.55;74.58;100421.47;5097271;28;20728;-69
2021/01/13 07:33:10;;;;;;;6.57;3.90;;;;;;;3.67;74.30;100424.44;5096594;28;20204;-67
2021/01/13 07:35:44;;;;;;;8.90;4.07;;;;;;;3.71;74.21;100418.56;5097015;28;20532;-68
2021/01/13 07:38:18;;;;;;;6.07;3.90;;;;;;;3.28;75.09;100434.31;5096991;28;20457;-68
2021/01/13 07:40:57;;;;;;;11.87;3.97;;;;;;;4.00;73.22;100425.47;5097059;28;20688;-67
2021/01/13 07:43:48;;;;;;;7.63;4.57;;;;;;;4.34;71.63;100419.66;5096628;28;20686;-68
2021/01/13 07:46:28;;;;;;;5.20;4.17;;;;;;;3.66;74.72;100421.81;5096890;28;20453;-68
2021/01/13 07:49:02;;;;;;;9.87;4.27;;;;;;;3.97;74.73;100426.25;5096818;28;20827;-68
2021/01/13 07:51:33;;;;;;;8.93;5.10;;;;;;;3.58;76.63;100442.19;5096731;28;20425;-68
2021/01/13 07:54:06;;;;;;;12.27;4.73;;;;;;;3.48;75.95;100435.00;5096570;28;20462;-68
2021/01/13 07:56:34;;;;;;;5.90;4.00;;;;;;;3.39;75.72;100435.53;5096749;28;20429;-68
2021/01/13 07:59:33;;;;;;;6.10;3.60;;;;;;;3.66;76.40;100429.56;5096276;28;20467;-68
2021/01/13 08:02:26;;;;;;;4.67;3.73;;;;;;;3.50;74.68;100417.88;5103358;28;20750;-67
2021/01/13 08:05:16;;;;;;;9.40;3.77;;;;;;;3.88;74.24;100411.38;5098061;28;20434;-67
2021/01/13 08:07:42;;;;;;;9.53;5.63;;;;;;;6.64;75.00;100397.75;5107778;28;20433;-64
2021/01/13 08:10:09;;;;;;;14.57;5.10;;;;;;;6.28;69.54;100386.69;5096289;28;20690;-61
2021/01/13 08:13:08;;;;;;;9.27;3.50;;;;;;;4.36;69.74;100394.75;5096123;28;20472;-67
2021/01/13 08:16:11;;;;;;;6.00;3.20;;;;;;;3.40;73.80;100400.34;5096681;28;20881;-67
2021/01/13 08:19:22;;;;;;;8.37;2.93;;;;;;;3.48;73.64;100404.06;5096468;28;20425;-67
2021/01/13 08:24:21;;;;;;;5.47;3.53;;;;;;;3.68;73.31;100381.50;5096153;28;20462;-66
2021/01/13 08:26:47;;;;;;;7.77;3.30;;;;;;;3.70;73.16;100385.88;5096468;28;20430;-67
2021/01/13 08:29:21;;;;;;;5.57;2.93;;;;;;;4.07;72.25;100372.38;5096344;28;20414;-67
2021/01/13 08:31:50;;;;;;;7.97;2.97;;;;;;;3.86;73.93;100376.06;5095458;28;20176;-67
2021/01/13 08:34:16;;;;;;;6.90;3.10;;;;;;;4.21;71.59;100366.78;5096027;28;20881;-67
2021/01/13 08:36:52;;;;;;;6.10;3.27;;;;;;;4.58;69.41;100354.06;5100248;28;20406;-67
2021/01/13 08:39:18;;;;;;;6.07;3.13;;;;;;;4.10;71.70;100370.78;5099948;28;20409;-68
2021/01/13 08:41:45;;;;;;;4.30;2.93;;;;;;;3.92;73.21;100371.06;5100519;28;20421;-67
2021/01/13 08:44:18;;;;;;;4.57;2.93;;;;;;;3.60;75.00;100375.22;5098943;28;20207;-68
2021/01/13 08:46:49;;;;;;;3.43;2.37;;;;;;;3.05;76.35;100369.13;5100236;28;20410;-67
2021/01/13 08:49:25;;;;;;;3.73;2.50;;;;;;;3.20;74.75;100356.75;5100507;28;20422;-67
2021/01/13 08:52:15;;;;;;;5.57;2.97;;;;;;;3.50;74.29;100340.56;5106024;28;20426;-70
2021/01/13 08:54:47;;;;;;;7.17;3.20;;;;;;;3.54;74.54;100344.97;5101103;28;20481;-67
2021/01/13 08:57:13;;;;;;;4.07;3.00;;;;;;;3.43;74.38;100343.78;5119015;28;20452;-66
2021/01/13 08:59:46;;;;;;;7.07;3.10;;;;;;;3.82;72.92;100338.97;5119419;28;20484;-66
2021/01/13 09:02:16;;;;;;;5.00;3.07;;;;;;;3.95;72.55;100334.19;5134218;27;20439;-69
2021/01/13 09:04:58;;;;;;;7.60;3.47;;;;;;;3.95;72.84;100345.41;5141081;27;20420;-70
2021/01/13 09:07:31;;;;;;;3.63;3.00;;;;;;;3.91;73.32;100343.56;5141511;27;20420;-70
2021/01/13 09:10:05;;;;;;;4.30;2.90;;;;;;;3.61;75.34;100357.22;5141507;27;20412;-70
2021/01/13 09:12:43;;;;;;;4.73;3.20;;;;;;;3.43;75.01;100354.94;5140409;27;20930;-69
2021/01/13 09:15:09;;;;;;;6.70;3.33;;;;;;;3.70;74.08;100343.75;5140199;27;20404;-69
2021/01/13 09:17:35;;;;;;;6.87;3.47;;;;;;;3.22;77.02;100344.81;5140373;27;20461;-69
2021/01/13 09:20:03;;;;;;;5.07;3.40;;;;;;;3.59;74.90;100330.53;5140209;27;20574;-69
2021/01/13 09:22:43;;;;;;;11.33;3.37;;;;;;;3.34;75.99;100334.91;5140560;27;20427;-69
2021/01/13 09:25:23;;;;;;;3.40;3.00;;;;;;;3.86;74.09;100332.22;5139984;27;20484;-69
2021/01/13 09:27:52;;;;;;;5.47;3.40;;;;;;;4.34;72.70;100337.06;5139991;27;20499;-68
2021/01/13 09:30:34;;;;;;;7.50;3.63;;;;;;;3.71;75.41;100341.22;5139991;27;20681;-69
2021/01/13 09:33:01;;;;;;;7.03;3.93;;;;;;;4.54;71.95;100336.75;5109087;27;20473;-71
2021/01/13 09:35:30;;;;;;;7.80;3.70;;;;;;;5.20;69.07;100335.03;5099410;28;20425;-70
2021/01/13 09:38:01;;;;;;;6.63;3.60;;;;;;;4.72;71.68;100321.75;5099117;28;20425;-68
2021/01/13 09:40:45;;;;;;;5.33;3.90;;;;;;;4.60;71.42;100320.53;5098938;28;20823;-69
2021/01/13 09:43:28;;;;;;;8.90;4.20;;;;;;;4.57;71.12;100323.91;5098831;28;20413;-69
2021/01/13 09:45:54;;;;;;;8.03;4.10;;;;;;;4.51;71.54;100322.03;5098654;28;20483;-71
2021/01/13 09:48:20;;;;;;;7.80;4.03;;;;;;;4.37;71.87;100313.91;5098590;28;20415;-70
2021/01/13 09:50:46;;;;;;;7.23;4.20;;;;;;;4.94;70.64;100326.59;5098569;28;20474;-69
2021/01/13 09:53:12;;;;;;;7.23;3.53;;;;;;;4.15;73.07;100322.75;5097909;28;20199;-71
2021/01/13 09:55:38;;;;;;;9.10;3.47;;;;;;;4.13;72.73;100327.00;5098810;28;20418;-70
2021/01/13 09:58:16;;;;;;;12.10;5.63;;;;;;;4.07;72.99;100323.38;5102942;28;20430;-68
2021/01/13 10:00:42;;;;;;;11.73;3.90;;;;;;;4.70;71.32;100312.22;5107566;27;20195;-73
2021/01/13 10:03:10;;;;;;;7.27;4.17;;;;;;;4.37;72.59;100303.59;5110041;28;20410;-69
2021/01/13 10:05:36;;;;;;;8.23;3.67;;;;;;;4.61;71.87;100311.97;5115407;27;20440;-68
2021/01/13 10:08:01;;;;;;;6.93;3.20;;;;;;;4.44;72.32;100301.16;5106981;28;20430;-68
2021/01/13 10:10:27;;;;;;;5.00;3.47;;;;;;;4.13;73.22;100301.19;5108112;28;20449;-70
2021/01/13 10:12:52;;;;;;;8.33;3.60;;;;;;;4.48;73.13;100296.16;5109136;28;20270;-69
2021/01/13 10:15:18;;;;;;;7.93;3.80;;;;;;;4.41;72.96;100291.66;5106329;28;20172;-68
2021/01/13 10:17:44;;;;;;;7.23;3.07;;;;;;;4.37;73.41;100287.22;5105573;28;20576;-69
2021/01/13 10:20:14;;;;;;;9.80;3.43;;;;;;;4.75;71.96;100283.91;5098157;28;20482;-71
2021/01/13 10:22:39;;;;;;;6.37;3.17;;;;;;;5.21;70.67;100280.78;5097808;28;20421;-72
2021/01/13 10:25:06;;;;;;;6.03;3.60;;;;;;;5.20;69.88;100271.28;5097148;28;20458;-69
2021/01/13 10:27:31;;;;;;;7.07;3.73;;;;;;;4.66;71.76;100275.09;5098501;28;20187;-71
2021/01/13 10:29:56;;;;;;;9.90;3.33;;;;;;;4.46;72.10;100282.31;5097937;28;20427;-71
2021/01/13 10:32:22;;;;;;;9.93;3.70;;;;;;;4.48;72.19;100266.88;5097627;28;20195;-69
2021/01/13 10:34:52;;;;;;;8.47;3.47;;;;;;;4.82;71.17;100266.03;5104146;27;20214;-69
2021/01/13 10:37:17;;;;;;;8.73;3.77;;;;;;;4.92;71.04;100261.97;5111254;27;20487;-70
2021/01/13 10:39:43;;;;;;;7.87;3.67;;;;;;;4.67;72.17;100271.69;5110222;28;20421;-71
2021/01/13 10:42:09;;;;;;;11.50;3.53;;;;;;;4.19;73.65;100262.69;5118449;28;20483;-69
2021/01/13 10:44:35;;;;;;;6.37;3.43;;;;;;;4.49;74.01;100269.50;5105452;27;20194;-68
2021/01/13 10:47:01;;;;;;;11.23;3.87;;;;;;;4.31;74.54;100253.53;5097796;28;20214;-70
2021/01/13 10:49:27;;;;;;;7.10;4.10;;;;;;;4.75;72.26;100255.50;5117782;28;20441;-71
2021/01/13 10:52:04;;;;;;;8.20;4.10;;;;;;;4.21;73.68;100250.69;5118168;28;20504;-68
2021/01/13 10:54:31;;;;;;;8.97;3.80;;;;;;;4.56;73.48;100252.47;5117400;28;20464;-69
2021/01/13 10:57:01;;;;;;;9.00;4.00;;;;;;;4.72;73.21;100246.88;5108990;28;20455;-68
2021/01/13 10:59:28;;;;;;;6.63;3.30;;;;;;;4.91;72.74;100234.41;5114356;28;20421;-68
2021/01/13 11:01:57;;;;;;;7.90;3.43;;;;;;;4.60;72.60;100240.50;5117648;27;20470;-69
2021/01/13 11:04:27;;;;;;;7.10;3.60;;;;;;;5.54;70.14;100228.09;5118196;28;20413;-69
2021/01/13 11:06:54;;;;;;;8.73;3.37;;;;;;;5.03;72.19;100216.63;5117912;27;20425;-70
2021/01/13 11:09:21;;;;;;;7.73;3.33;;;;;;;5.10;71.62;100214.19;5117677;28;20409;-70
2021/01/13 11:11:47;;;;;;;8.00;4.07;;;;;;;5.20;70.88;100209.25;5117745;28;20414;-70
2021/01/13 11:14:13;;;;;;;6.20;3.40;;;;;;;4.95;71.67;100220.75;5117729;28;20465;-70
2021/01/13 11:17:11;;;;;;;7.33;4.80;;;;;;;7.28;77.18;100201.06;5126988;27;20285;-61
2021/01/13 11:19:38;;;;;;;12.17;3.67;;;;;;;7.00;67.31;100190.25;5117962;27;20444;-63
2021/01/13 11:22:04;;;;;;;10.10;3.23;;;;;;;6.34;66.06;100202.97;5097595;28;20442;-71
2021/01/13 11:24:33;;;;;;;9.80;3.70;;;;;;;5.57;68.75;100180.75;5107223;28;20557;-70
2021/01/13 11:27:04;;;;;;;9.97;3.90;;;;;;;5.45;69.80;100176.19;5097009;28;20701;-69
2021/01/13 11:29:32;;;;;;;4.93;2.90;;;;;;;5.32;70.07;100177.66;5096917;28;20402;-69
2021/01/13 11:31:59;;;;;;;6.10;3.40;;;;;;;5.36;69.97;100163.94;5128897;27;20449;-69
2021/01/13 11:34:25;;;;;;;11.20;3.60;;;;;;;5.39;69.78;100164.00;5112587;28;20479;-70
2021/01/13 11:37:21;;;;;;;14.67;4.20;;;;;;;5.41;69.70;100156.28;5108664;28;20425;-76
2021/01/13 11:40:06;;;;;;;8.07;3.67;;;;;;;5.31;70.20;100146.59;5096191;28;20471;-75
2021/01/13 11:42:49;;;;;;;10.50;3.97;;;;;;;5.59;68.76;100135.13;5096781;28;20414;-75
2021/01/13 11:45:29;;;;;;;12.10;3.90;;;;;;;5.94;67.67;100124.59;5102926;27;20413;-72
2021/01/13 11:48:01;;;;;;;10.20;3.60;;;;;;;6.04;67.49;100116.16;5133405;27;20463;-70
2021/01/13 11:50:27;;;;;;;5.23;3.20;;;;;;;5.68;67.72;100117.22;5136117;27;20432;-71
2021/01/13 11:52:58;;;;;;;8.73;4.10;;;;;;;5.97;67.05;100121.19;5136585;27;20472;-74
2021/01/13 11:55:28;;;;;;;8.23;3.57;;;;;;;5.30;68.87;100103.50;5136743;27;20764;-74